sensor_id;sensor_type;location;lat;lon;timestamp;P1;durP1;ratioP1;P2;durP2;ratioP2
325;SDS011;150;52.352;14.058;2023-08-12T00:01:59;5.07;;;3.30;;
325;SDS011;150;52.352;14.058;2023-08-12T00:04:25;8.57;;;4.20;;
325;SDS011;150;52.352;14.058;2023-08-12T00:06:52;4.30;;;3.97;;
325;SDS011;150;52.352;14.058;2023-08-12T00:09:18;3.75;;;3.50;;
325;SDS011;150;52.352;14.058;2023-08-12T00:11:45;6.77;;;4.03;;
325;SDS011;150;52.352;14.058;2023-08-12T00:14:11;4.45;;;4.03;;
325;SDS011;150;52.352;14.058;2023-08-12T00:16:39;4.45;;;3.67;;
325;SDS011;150;52.352;14.058;2023-08-12T00:19:06;4.95;;;3.75;;
325;SDS011;150;52.352;14.058;2023-08-12T00:21:34;4.38;;;4.07;;
325;SDS011;150;52.352;14.058;2023-08-12T00:24:01;3.88;;;3.40;;
325;SDS011;150;52.352;14.058;2023-08-12T00:26:27;3.80;;;3.67;;
325;SDS011;150;52.352;14.058;2023-08-12T00:28:54;6.60;;;4.28;;
325;SDS011;150;52.352;14.058;2023-08-12T00:31:21;4.30;;;3.80;;
325;SDS011;150;52.352;14.058;2023-08-12T00:33:48;5.90;;;3.80;;
325;SDS011;150;52.352;14.058;2023-08-12T00:36:15;3.63;;;3.20;;
325;SDS011;150;52.352;14.058;2023-08-12T00:38:42;5.10;;;3.60;;
325;SDS011;150;52.352;14.058;2023-08-12T00:41:08;7.43;;;4.13;;
325;SDS011;150;52.352;14.058;2023-08-12T00:43:35;3.97;;;3.72;;
325;SDS011;150;52.352;14.058;2023-08-12T00:46:01;3.80;;;3.60;;
325;SDS011;150;52.352;14.058;2023-08-12T00:48:28;4.35;;;3.90;;
325;SDS011;150;52.352;14.058;2023-08-12T00:50:56;3.90;;;3.60;;
325;SDS011;150;52.352;14.058;2023-08-12T00:53:23;5.35;;;4.05;;
325;SDS011;150;52.352;14.058;2023-08-12T00:55:49;5.00;;;3.30;;
325;SDS011;150;52.352;14.058;2023-08-12T00:58:16;5.38;;;3.63;;
325;SDS011;150;52.352;14.058;2023-08-12T01:00:43;6.90;;;4.40;;
325;SDS011;150;52.352;14.058;2023-08-12T01:03:09;3.95;;;3.80;;
325;SDS011;150;52.352;14.058;2023-08-12T01:05:37;4.53;;;3.70;;
325;SDS011;150;52.352;14.058;2023-08-12T01:08:05;3.80;;;3.60;;
325;SDS011;150;52.352;14.058;2023-08-12T01:10:33;4.10;;;3.55;;
325;SDS011;150;52.352;14.058;2023-08-12T01:13:05;3.95;;;3.75;;
325;SDS011;150;52.352;14.058;2023-08-12T01:15:38;4.40;;;3.55;;
325;SDS011;150;52.352;14.058;2023-08-12T01:18:07;4.13;;;3.80;;
325;SDS011;150;52.352;14.058;2023-08-12T01:20:34;6.03;;;4.35;;
325;SDS011;150;52.352;14.058;2023-08-12T01:23:12;3.83;;;3.70;;
325;SDS011;150;52.352;14.058;2023-08-12T01:25:39;4.15;;;3.20;;
325;SDS011;150;52.352;14.058;2023-08-12T01:28:06;4.05;;;3.80;;
325;SDS011;150;52.352;14.058;2023-08-12T01:30:33;6.28;;;3.50;;
325;SDS011;150;52.352;14.058;2023-08-12T01:33:05;4.32;;;3.80;;
325;SDS011;150;52.352;14.058;2023-08-12T01:35:38;6.60;;;3.58;;
325;SDS011;150;52.352;14.058;2023-08-12T01:38:08;4.97;;;3.78;;
325;SDS011;150;52.352;14.058;2023-08-12T01:40:37;4.03;;;3.58;;
325;SDS011;150;52.352;14.058;2023-08-12T01:43:05;5.55;;;3.47;;
325;SDS011;150;52.352;14.058;2023-08-12T01:45:33;5.25;;;4.18;;
325;SDS011;150;52.352;14.058;2023-08-12T01:48:00;3.88;;;3.40;;
325;SDS011;150;52.352;14.058;2023-08-12T01:50:26;4.60;;;3.70;;
325;SDS011;150;52.352;14.058;2023-08-12T01:52:53;4.97;;;3.88;;
325;SDS011;150;52.352;14.058;2023-08-12T01:55:20;5.57;;;3.60;;
325;SDS011;150;52.352;14.058;2023-08-12T01:57:48;4.30;;;3.97;;
325;SDS011;150;52.352;14.058;2023-08-12T02:00:15;3.47;;;3.35;;
325;SDS011;150;52.352;14.058;2023-08-12T02:02:42;5.43;;;3.37;;
325;SDS011;150;52.352;14.058;2023-08-12T02:05:11;4.30;;;4.00;;
325;SDS011;150;52.352;14.058;2023-08-12T02:07:37;5.70;;;4.25;;
325;SDS011;150;52.352;14.058;2023-08-12T02:10:04;4.60;;;3.67;;
325;SDS011;150;52.352;14.058;2023-08-12T02:12:31;4.60;;;4.30;;
325;SDS011;150;52.352;14.058;2023-08-12T02:14:59;5.53;;;4.18;;
325;SDS011;150;52.352;14.058;2023-08-12T02:17:26;6.03;;;4.13;;
325;SDS011;150;52.352;14.058;2023-08-12T02:19:52;4.60;;;4.05;;
325;SDS011;150;52.352;14.058;2023-08-12T02:22:19;5.15;;;4.50;;
325;SDS011;150;52.352;14.058;2023-08-12T02:24:45;5.72;;;4.13;;
325;SDS011;150;52.352;14.058;2023-08-12T02:27:12;5.38;;;3.92;;
325;SDS011;150;52.352;14.058;2023-08-12T02:29:39;6.78;;;4.82;;
325;SDS011;150;52.352;14.058;2023-08-12T02:32:07;4.72;;;4.45;;
325;SDS011;150;52.352;14.058;2023-08-12T02:34:33;4.70;;;3.90;;
325;SDS011;150;52.352;14.058;2023-08-12T02:37:00;4.60;;;4.30;;
325;SDS011;150;52.352;14.058;2023-08-12T02:39:26;6.13;;;4.45;;
325;SDS011;150;52.352;14.058;2023-08-12T02:41:53;6.60;;;3.75;;
325;SDS011;150;52.352;14.058;2023-08-12T02:44:20;5.43;;;4.50;;
325;SDS011;150;52.352;14.058;2023-08-12T02:46:46;4.47;;;3.90;;
325;SDS011;150;52.352;14.058;2023-08-12T02:49:14;4.68;;;4.20;;
325;SDS011;150;52.352;14.058;2023-08-12T02:51:41;7.13;;;4.90;;
325;SDS011;150;52.352;14.058;2023-08-12T02:54:07;3.90;;;3.80;;
325;SDS011;150;52.352;14.058;2023-08-12T02:56:34;5.05;;;4.35;;
325;SDS011;150;52.352;14.058;2023-08-12T02:59:00;4.57;;;4.30;;
325;SDS011;150;52.352;14.058;2023-08-12T03:01:27;5.90;;;3.95;;
325;SDS011;150;52.352;14.058;2023-08-12T03:03:55;3.90;;;3.70;;
325;SDS011;150;52.352;14.058;2023-08-12T03:06:23;4.90;;;3.90;;
325;SDS011;150;52.352;14.058;2023-08-12T03:08:49;4.30;;;4.00;;
325;SDS011;150;52.352;14.058;2023-08-12T03:11:16;6.43;;;4.55;;
325;SDS011;150;52.352;14.058;2023-08-12T03:13:44;4.38;;;4.10;;
325;SDS011;150;52.352;14.058;2023-08-12T03:16:11;3.90;;;3.53;;
325;SDS011;150;52.352;14.058;2023-08-12T03:18:39;4.73;;;3.90;;
325;SDS011;150;52.352;14.058;2023-08-12T03:21:05;4.70;;;4.20;;
325;SDS011;150;52.352;14.058;2023-08-12T03:23:34;5.22;;;3.40;;
325;SDS011;150;52.352;14.058;2023-08-12T03:26:01;4.50;;;3.40;;
325;SDS011;150;52.352;14.058;2023-08-12T03:28:28;5.57;;;4.38;;
325;SDS011;150;52.352;14.058;2023-08-12T03:30:55;6.13;;;4.65;;
325;SDS011;150;52.352;14.058;2023-08-12T03:33:22;5.70;;;4.60;;
325;SDS011;150;52.352;14.058;2023-08-12T03:35:49;5.60;;;4.07;;
325;SDS011;150;52.352;14.058;2023-08-12T03:38:15;6.15;;;4.38;;
325;SDS011;150;52.352;14.058;2023-08-12T03:40:43;4.68;;;4.47;;
325;SDS011;150;52.352;14.058;2023-08-12T03:43:10;4.90;;;4.47;;
325;SDS011;150;52.352;14.058;2023-08-12T03:45:39;5.72;;;5.00;;
325;SDS011;150;52.352;14.058;2023-08-12T03:48:06;5.30;;;4.93;;
325;SDS011;150;52.352;14.058;2023-08-12T03:50:33;5.90;;;5.57;;
325;SDS011;150;52.352;14.058;2023-08-12T03:53:00;7.28;;;5.90;;
325;SDS011;150;52.352;14.058;2023-08-12T03:55:26;6.30;;;5.60;;
325;SDS011;150;52.352;14.058;2023-08-12T03:57:54;5.35;;;4.80;;
325;SDS011;150;52.352;14.058;2023-08-12T04:00:21;5.73;;;5.50;;
325;SDS011;150;52.352;14.058;2023-08-12T04:02:47;6.43;;;6.00;;
325;SDS011;150;52.352;14.058;2023-08-12T04:05:14;5.60;;;5.30;;
325;SDS011;150;52.352;14.058;2023-08-12T04:07:40;5.57;;;5.15;;
325;SDS011;150;52.352;14.058;2023-08-12T04:10:07;5.32;;;5.03;;
325;SDS011;150;52.352;14.058;2023-08-12T04:12:35;8.10;;;5.70;;
325;SDS011;150;52.352;14.058;2023-08-12T04:15:03;8.55;;;5.75;;
325;SDS011;150;52.352;14.058;2023-08-12T04:17:30;6.43;;;5.60;;
325;SDS011;150;52.352;14.058;2023-08-12T04:19:57;5.60;;;5.30;;
325;SDS011;150;52.352;14.058;2023-08-12T04:22:24;7.25;;;5.28;;
325;SDS011;150;52.352;14.058;2023-08-12T04:24:51;6.45;;;5.63;;
325;SDS011;150;52.352;14.058;2023-08-12T04:27:17;8.40;;;5.60;;
325;SDS011;150;52.352;14.058;2023-08-12T04:29:45;6.60;;;5.03;;
325;SDS011;150;52.352;14.058;2023-08-12T04:32:13;5.80;;;5.32;;
325;SDS011;150;52.352;14.058;2023-08-12T04:34:39;7.38;;;6.20;;
325;SDS011;150;52.352;14.058;2023-08-12T04:37:06;7.37;;;6.10;;
325;SDS011;150;52.352;14.058;2023-08-12T04:39:32;7.22;;;6.32;;
325;SDS011;150;52.352;14.058;2023-08-12T04:41:59;6.53;;;5.95;;
325;SDS011;150;52.352;14.058;2023-08-12T04:44:26;6.17;;;5.50;;
325;SDS011;150;52.352;14.058;2023-08-12T04:46:52;6.63;;;5.47;;
325;SDS011;150;52.352;14.058;2023-08-12T04:49:20;8.02;;;5.43;;
325;SDS011;150;52.352;14.058;2023-08-12T04:51:48;9.05;;;5.78;;
325;SDS011;150;52.352;14.058;2023-08-12T04:54:17;6.82;;;5.40;;
325;SDS011;150;52.352;14.058;2023-08-12T04:56:44;6.77;;;5.63;;
325;SDS011;150;52.352;14.058;2023-08-12T04:59:10;8.05;;;5.40;;
325;SDS011;150;52.352;14.058;2023-08-12T05:01:37;5.97;;;5.67;;
325;SDS011;150;52.352;14.058;2023-08-12T05:04:04;6.00;;;5.70;;
325;SDS011;150;52.352;14.058;2023-08-12T05:06:32;6.28;;;5.32;;
325;SDS011;150;52.352;14.058;2023-08-12T05:08:58;8.85;;;4.95;;
325;SDS011;150;52.352;14.058;2023-08-12T05:11:25;6.38;;;6.00;;
325;SDS011;150;52.352;14.058;2023-08-12T05:13:52;6.32;;;5.05;;
325;SDS011;150;52.352;14.058;2023-08-12T05:16:19;6.50;;;4.68;;
325;SDS011;150;52.352;14.058;2023-08-12T05:18:45;5.15;;;4.50;;
325;SDS011;150;52.352;14.058;2023-08-12T05:21:12;5.90;;;4.53;;
325;SDS011;150;52.352;14.058;2023-08-12T05:23:40;7.55;;;5.07;;
325;SDS011;150;52.352;14.058;2023-08-12T05:26:06;4.68;;;4.40;;
325;SDS011;150;52.352;14.058;2023-08-12T05:28:33;9.07;;;5.00;;
325;SDS011;150;52.352;14.058;2023-08-12T05:30:59;6.00;;;4.47;;
325;SDS011;150;52.352;14.058;2023-08-12T05:33:26;5.27;;;4.70;;
325;SDS011;150;52.352;14.058;2023-08-12T05:35:52;3.95;;;3.85;;
325;SDS011;150;52.352;14.058;2023-08-12T05:38:19;4.60;;;4.18;;
325;SDS011;150;52.352;14.058;2023-08-12T05:40:47;5.00;;;4.60;;
325;SDS011;150;52.352;14.058;2023-08-12T05:43:13;4.80;;;4.50;;
325;SDS011;150;52.352;14.058;2023-08-12T05:45:40;4.70;;;4.40;;
325;SDS011;150;52.352;14.058;2023-08-12T05:48:07;4.93;;;4.55;;
325;SDS011;150;52.352;14.058;2023-08-12T05:50:34;4.60;;;3.90;;
325;SDS011;150;52.352;14.058;2023-08-12T05:53:00;4.93;;;4.20;;
325;SDS011;150;52.352;14.058;2023-08-12T05:55:27;4.53;;;4.22;;
325;SDS011;150;52.352;14.058;2023-08-12T05:57:55;5.70;;;4.65;;
325;SDS011;150;52.352;14.058;2023-08-12T06:00:21;5.07;;;4.30;;
325;SDS011;150;52.352;14.058;2023-08-12T06:02:48;5.13;;;4.68;;
325;SDS011;150;52.352;14.058;2023-08-12T06:05:14;4.50;;;4.07;;
325;SDS011;150;52.352;14.058;2023-08-12T06:07:41;5.18;;;4.45;;
325;SDS011;150;52.352;14.058;2023-08-12T06:10:08;6.68;;;3.90;;
325;SDS011;150;52.352;14.058;2023-08-12T06:12:35;5.25;;;4.25;;
325;SDS011;150;52.352;14.058;2023-08-12T06:15:03;5.30;;;4.20;;
325;SDS011;150;52.352;14.058;2023-08-12T06:17:30;5.13;;;4.25;;
325;SDS011;150;52.352;14.058;2023-08-12T06:19:57;7.60;;;4.80;;
325;SDS011;150;52.352;14.058;2023-08-12T06:22:23;6.13;;;4.43;;
325;SDS011;150;52.352;14.058;2023-08-12T06:24:50;6.90;;;6.00;;
325;SDS011;150;52.352;14.058;2023-08-12T06:27:16;5.70;;;4.32;;
325;SDS011;150;52.352;14.058;2023-08-12T06:29:45;5.07;;;4.35;;
325;SDS011;150;52.352;14.058;2023-08-12T06:32:13;4.30;;;4.00;;
325;SDS011;150;52.352;14.058;2023-08-12T06:34:39;5.10;;;3.88;;
325;SDS011;150;52.352;14.058;2023-08-12T06:37:06;3.63;;;3.43;;
325;SDS011;150;52.352;14.058;2023-08-12T06:39:33;4.30;;;3.63;;
325;SDS011;150;52.352;14.058;2023-08-12T06:41:59;5.63;;;3.83;;
325;SDS011;150;52.352;14.058;2023-08-12T06:44:26;8.30;;;3.63;;
325;SDS011;150;52.352;14.058;2023-08-12T06:46:52;4.22;;;3.40;;
325;SDS011;150;52.352;14.058;2023-08-12T06:49:20;4.95;;;3.60;;
325;SDS011;150;52.352;14.058;2023-08-12T06:51:47;4.95;;;3.60;;
325;SDS011;150;52.352;14.058;2023-08-12T06:54:13;4.95;;;3.85;;
325;SDS011;150;52.352;14.058;2023-08-12T06:56:40;3.78;;;3.17;;
325;SDS011;150;52.352;14.058;2023-08-12T06:59:07;4.80;;;3.60;;
325;SDS011;150;52.352;14.058;2023-08-12T07:01:33;4.60;;;3.20;;
325;SDS011;150;52.352;14.058;2023-08-12T07:04:00;3.95;;;3.45;;
325;SDS011;150;52.352;14.058;2023-08-12T07:06:28;3.90;;;3.03;;
325;SDS011;150;52.352;14.058;2023-08-12T07:08:54;3.83;;;2.95;;
325;SDS011;150;52.352;14.058;2023-08-12T07:11:22;5.20;;;3.55;;
325;SDS011;150;52.352;14.058;2023-08-12T07:13:48;9.10;;;3.90;;
325;SDS011;150;52.352;14.058;2023-08-12T07:16:15;5.90;;;4.90;;
325;SDS011;150;52.352;14.058;2023-08-12T07:18:41;5.90;;;4.63;;
325;SDS011;150;52.352;14.058;2023-08-12T07:21:08;6.60;;;4.20;;
325;SDS011;150;52.352;14.058;2023-08-12T07:23:36;5.63;;;3.70;;
325;SDS011;150;52.352;14.058;2023-08-12T07:26:02;5.38;;;3.78;;
325;SDS011;150;52.352;14.058;2023-08-12T07:28:29;4.35;;;3.70;;
325;SDS011;150;52.352;14.058;2023-08-12T07:30:55;3.30;;;3.10;;
325;SDS011;150;52.352;14.058;2023-08-12T07:33:22;5.35;;;3.78;;
325;SDS011;150;52.352;14.058;2023-08-12T07:35:49;7.55;;;3.63;;
325;SDS011;150;52.352;14.058;2023-08-12T07:38:16;3.50;;;3.35;;
325;SDS011;150;52.352;14.058;2023-08-12T07:40:44;4.70;;;3.95;;
325;SDS011;150;52.352;14.058;2023-08-12T07:43:10;5.03;;;3.60;;
325;SDS011;150;52.352;14.058;2023-08-12T07:45:37;3.50;;;3.00;;
325;SDS011;150;52.352;14.058;2023-08-12T07:48:04;3.90;;;3.50;;
325;SDS011;150;52.352;14.058;2023-08-12T07:50:31;4.10;;;3.17;;
325;SDS011;150;52.352;14.058;2023-08-12T07:52:57;4.80;;;3.38;;
325;SDS011;150;52.352;14.058;2023-08-12T07:55:24;3.50;;;3.17;;
325;SDS011;150;52.352;14.058;2023-08-12T07:57:52;4.60;;;3.20;;
325;SDS011;150;52.352;14.058;2023-08-12T08:00:18;4.03;;;2.90;;
325;SDS011;150;52.352;14.058;2023-08-12T08:02:45;3.65;;;3.03;;
325;SDS011;150;52.352;14.058;2023-08-12T08:05:12;3.70;;;3.20;;
325;SDS011;150;52.352;14.058;2023-08-12T08:07:38;4.30;;;2.88;;
325;SDS011;150;52.352;14.058;2023-08-12T08:10:05;4.25;;;3.70;;
325;SDS011;150;52.352;14.058;2023-08-12T08:12:33;3.78;;;3.10;;
325;SDS011;150;52.352;14.058;2023-08-12T08:15:00;4.50;;;3.42;;
325;SDS011;150;52.352;14.058;2023-08-12T08:17:28;4.88;;;3.10;;
325;SDS011;150;52.352;14.058;2023-08-12T08:19:55;7.75;;;3.85;;
325;SDS011;150;52.352;14.058;2023-08-12T08:22:21;4.68;;;3.50;;
325;SDS011;150;52.352;14.058;2023-08-12T08:24:48;5.88;;;3.58;;
325;SDS011;150;52.352;14.058;2023-08-12T08:27:14;4.45;;;3.15;;
325;SDS011;150;52.352;14.058;2023-08-12T08:29:41;4.60;;;3.20;;
325;SDS011;150;52.352;14.058;2023-08-12T08:32:09;4.82;;;3.50;;
325;SDS011;150;52.352;14.058;2023-08-12T08:34:35;6.43;;;3.23;;
325;SDS011;150;52.352;14.058;2023-08-12T08:37:02;5.95;;;3.05;;
325;SDS011;150;52.352;14.058;2023-08-12T08:39:29;6.07;;;3.67;;
325;SDS011;150;52.352;14.058;2023-08-12T08:41:56;3.15;;;2.67;;
325;SDS011;150;52.352;14.058;2023-08-12T08:44:22;4.22;;;3.10;;
325;SDS011;150;52.352;14.058;2023-08-12T08:46:49;3.45;;;2.72;;
325;SDS011;150;52.352;14.058;2023-08-12T08:49:20;3.38;;;2.80;;
325;SDS011;150;52.352;14.058;2023-08-12T08:51:47;4.32;;;2.80;;
325;SDS011;150;52.352;14.058;2023-08-12T08:54:14;4.15;;;2.88;;
325;SDS011;150;52.352;14.058;2023-08-12T08:56:41;6.18;;;2.40;;
325;SDS011;150;52.352;14.058;2023-08-12T08:59:08;7.25;;;3.20;;
325;SDS011;150;52.352;14.058;2023-08-12T09:01:35;3.55;;;3.17;;
325;SDS011;150;52.352;14.058;2023-08-12T09:04:04;3.67;;;3.00;;
325;SDS011;150;52.352;14.058;2023-08-12T09:06:33;4.80;;;2.75;;
325;SDS011;150;52.352;14.058;2023-08-12T09:09:02;5.38;;;3.15;;
325;SDS011;150;52.352;14.058;2023-08-12T09:11:33;16.95;;;5.40;;
325;SDS011;150;52.352;14.058;2023-08-12T09:14:00;4.83;;;4.60;;
325;SDS011;150;52.352;14.058;2023-08-12T09:16:27;5.50;;;4.20;;
325;SDS011;150;52.352;14.058;2023-08-12T09:18:55;4.10;;;3.03;;
325;SDS011;150;52.352;14.058;2023-08-12T09:21:22;4.70;;;3.20;;
325;SDS011;150;52.352;14.058;2023-08-12T09:23:50;3.10;;;2.80;;
325;SDS011;150;52.352;14.058;2023-08-12T09:26:19;3.47;;;2.87;;
325;SDS011;150;52.352;14.058;2023-08-12T09:28:47;4.35;;;2.83;;
325;SDS011;150;52.352;14.058;2023-08-12T09:31:21;4.35;;;3.47;;
325;SDS011;150;52.352;14.058;2023-08-12T09:33:49;3.63;;;3.00;;
325;SDS011;150;52.352;14.058;2023-08-12T09:36:16;3.90;;;2.90;;
325;SDS011;150;52.352;14.058;2023-08-12T09:38:43;2.97;;;2.70;;
325;SDS011;150;52.352;14.058;2023-08-12T09:41:11;4.70;;;2.95;;
325;SDS011;150;52.352;14.058;2023-08-12T09:43:40;5.43;;;3.13;;
325;SDS011;150;52.352;14.058;2023-08-12T09:46:09;6.40;;;3.30;;
325;SDS011;150;52.352;14.058;2023-08-12T09:48:37;5.60;;;3.20;;
325;SDS011;150;52.352;14.058;2023-08-12T09:51:04;3.58;;;3.28;;
325;SDS011;150;52.352;14.058;2023-08-12T09:53:32;4.47;;;3.10;;
325;SDS011;150;52.352;14.058;2023-08-12T09:55:59;5.10;;;3.40;;
325;SDS011;150;52.352;14.058;2023-08-12T09:58:33;3.75;;;3.17;;
325;SDS011;150;52.352;14.058;2023-08-12T10:01:03;3.25;;;2.97;;
325;SDS011;150;52.352;14.058;2023-08-12T10:03:31;3.40;;;3.10;;
325;SDS011;150;52.352;14.058;2023-08-12T10:06:00;4.18;;;3.05;;
325;SDS011;150;52.352;14.058;2023-08-12T10:08:28;5.47;;;3.70;;
325;SDS011;150;52.352;14.058;2023-08-12T10:10:55;3.42;;;2.70;;
325;SDS011;150;52.352;14.058;2023-08-12T10:13:22;3.15;;;2.90;;
325;SDS011;150;52.352;14.058;2023-08-12T10:15:50;4.82;;;3.72;;
325;SDS011;150;52.352;14.058;2023-08-12T10:18:18;5.68;;;3.60;;
325;SDS011;150;52.352;14.058;2023-08-12T10:20:45;5.05;;;4.22;;
325;SDS011;150;52.352;14.058;2023-08-12T10:23:13;4.60;;;3.30;;
325;SDS011;150;52.352;14.058;2023-08-12T10:25:43;3.20;;;2.65;;
325;SDS011;150;52.352;14.058;2023-08-12T10:28:10;3.78;;;3.00;;
325;SDS011;150;52.352;14.058;2023-08-12T10:30:37;4.38;;;3.70;;
325;SDS011;150;52.352;14.058;2023-08-12T10:33:07;3.70;;;2.72;;
325;SDS011;150;52.352;14.058;2023-08-12T10:35:41;3.80;;;3.53;;
325;SDS011;150;52.352;14.058;2023-08-12T10:38:13;4.90;;;2.90;;
325;SDS011;150;52.352;14.058;2023-08-12T10:40:43;3.60;;;2.97;;
325;SDS011;150;52.352;14.058;2023-08-12T10:43:11;4.70;;;3.15;;
325;SDS011;150;52.352;14.058;2023-08-12T10:45:42;5.50;;;3.30;;
325;SDS011;150;52.352;14.058;2023-08-12T10:48:16;4.78;;;2.60;;
325;SDS011;150;52.352;14.058;2023-08-12T10:50:44;4.28;;;3.28;;
325;SDS011;150;52.352;14.058;2023-08-12T10:53:24;5.00;;;3.50;;
325;SDS011;150;52.352;14.058;2023-08-12T10:55:55;3.40;;;2.95;;
325;SDS011;150;52.352;14.058;2023-08-12T10:58:27;3.20;;;2.80;;
325;SDS011;150;52.352;14.058;2023-08-12T11:00:55;4.10;;;3.25;;
325;SDS011;150;52.352;14.058;2023-08-12T11:03:23;5.28;;;3.10;;
325;SDS011;150;52.352;14.058;2023-08-12T11:05:50;3.55;;;3.33;;
325;SDS011;150;52.352;14.058;2023-08-12T11:08:23;5.00;;;2.92;;
325;SDS011;150;52.352;14.058;2023-08-12T11:10:53;3.92;;;3.22;;
325;SDS011;150;52.352;14.058;2023-08-12T11:13:22;5.43;;;3.83;;
325;SDS011;150;52.352;14.058;2023-08-12T11:15:49;4.18;;;3.53;;
325;SDS011;150;52.352;14.058;2023-08-12T11:18:16;3.90;;;3.10;;
325;SDS011;150;52.352;14.058;2023-08-12T11:20:46;4.13;;;3.03;;
325;SDS011;150;52.352;14.058;2023-08-12T11:23:14;5.03;;;3.92;;
325;SDS011;150;52.352;14.058;2023-08-12T11:25:42;3.70;;;3.15;;
325;SDS011;150;52.352;14.058;2023-08-12T11:28:10;4.38;;;2.90;;
325;SDS011;150;52.352;14.058;2023-08-12T11:30:36;5.78;;;2.67;;
325;SDS011;150;52.352;14.058;2023-08-12T11:33:07;4.87;;;3.47;;
325;SDS011;150;52.352;14.058;2023-08-12T11:35:34;5.80;;;2.70;;
325;SDS011;150;52.352;14.058;2023-08-12T11:38:04;6.00;;;3.47;;
325;SDS011;150;52.352;14.058;2023-08-12T11:40:31;3.72;;;3.20;;
325;SDS011;150;52.352;14.058;2023-08-12T11:42:58;5.90;;;3.10;;
325;SDS011;150;52.352;14.058;2023-08-12T11:45:25;4.45;;;3.15;;
325;SDS011;150;52.352;14.058;2023-08-12T11:47:52;5.32;;;3.65;;
325;SDS011;150;52.352;14.058;2023-08-12T11:50:20;3.80;;;3.20;;
325;SDS011;150;52.352;14.058;2023-08-12T11:52:48;4.50;;;3.67;;
325;SDS011;150;52.352;14.058;2023-08-12T11:55:16;6.15;;;3.80;;
325;SDS011;150;52.352;14.058;2023-08-12T11:57:44;4.32;;;3.65;;
325;SDS011;150;52.352;14.058;2023-08-12T12:00:11;4.20;;;3.28;;
325;SDS011;150;52.352;14.058;2023-08-12T12:02:40;4.70;;;4.15;;
325;SDS011;150;52.352;14.058;2023-08-12T12:05:08;4.32;;;4.00;;
325;SDS011;150;52.352;14.058;2023-08-12T12:07:36;4.65;;;3.55;;
325;SDS011;150;52.352;14.058;2023-08-12T12:10:03;4.05;;;3.58;;
325;SDS011;150;52.352;14.058;2023-08-12T12:12:32;3.80;;;3.30;;
325;SDS011;150;52.352;14.058;2023-08-12T12:15:00;3.80;;;3.40;;
325;SDS011;150;52.352;14.058;2023-08-12T12:17:27;4.85;;;3.60;;
325;SDS011;150;52.352;14.058;2023-08-12T12:19:54;5.80;;;4.00;;
325;SDS011;150;52.352;14.058;2023-08-12T12:22:25;3.60;;;3.10;;
325;SDS011;150;52.352;14.058;2023-08-12T12:24:53;4.68;;;3.65;;
325;SDS011;150;52.352;14.058;2023-08-12T12:27:20;4.20;;;3.47;;
325;SDS011;150;52.352;14.058;2023-08-12T12:29:48;4.05;;;3.75;;
325;SDS011;150;52.352;14.058;2023-08-12T12:32:17;5.10;;;3.65;;
325;SDS011;150;52.352;14.058;2023-08-12T12:34:44;4.30;;;3.60;;
325;SDS011;150;52.352;14.058;2023-08-12T12:37:11;4.35;;;4.07;;
325;SDS011;150;52.352;14.058;2023-08-12T12:39:38;3.92;;;3.78;;
325;SDS011;150;52.352;14.058;2023-08-12T12:42:04;3.40;;;3.10;;
325;SDS011;150;52.352;14.058;2023-08-12T12:44:31;5.00;;;4.00;;
325;SDS011;150;52.352;14.058;2023-08-12T12:47:02;4.88;;;3.90;;
325;SDS011;150;52.352;14.058;2023-08-12T12:49:28;6.10;;;3.60;;
325;SDS011;150;52.352;14.058;2023-08-12T12:51:55;3.88;;;3.33;;
325;SDS011;150;52.352;14.058;2023-08-12T12:54:24;5.78;;;3.55;;
325;SDS011;150;52.352;14.058;2023-08-12T12:56:50;3.67;;;3.35;;
325;SDS011;150;52.352;14.058;2023-08-12T12:59:17;4.85;;;3.80;;
325;SDS011;150;52.352;14.058;2023-08-12T13:01:44;5.38;;;3.40;;
325;SDS011;150;52.352;14.058;2023-08-12T13:04:12;6.57;;;3.70;;
325;SDS011;150;52.352;14.058;2023-08-12T13:06:38;6.13;;;3.70;;
325;SDS011;150;52.352;14.058;2023-08-12T13:09:05;4.25;;;3.50;;
325;SDS011;150;52.352;14.058;2023-08-12T13:11:32;4.00;;;3.20;;
325;SDS011;150;52.352;14.058;2023-08-12T13:14:00;5.90;;;3.80;;
325;SDS011;150;52.352;14.058;2023-08-12T13:16:27;3.72;;;3.28;;
325;SDS011;150;52.352;14.058;2023-08-12T13:18:54;4.93;;;3.60;;
325;SDS011;150;52.352;14.058;2023-08-12T13:21:21;3.30;;;2.90;;
325;SDS011;150;52.352;14.058;2023-08-12T13:23:48;4.85;;;3.13;;
325;SDS011;150;52.352;14.058;2023-08-12T13:26:15;5.30;;;4.15;;
325;SDS011;150;52.352;14.058;2023-08-12T13:28:41;4.00;;;3.45;;
325;SDS011;150;52.352;14.058;2023-08-12T13:31:08;4.93;;;2.80;;
325;SDS011;150;52.352;14.058;2023-08-12T13:33:35;3.80;;;2.88;;
325;SDS011;150;52.352;14.058;2023-08-12T13:36:03;3.53;;;2.97;;
325;SDS011;150;52.352;14.058;2023-08-12T13:38:31;4.65;;;3.40;;
325;SDS011;150;52.352;14.058;2023-08-12T13:40:57;3.60;;;3.03;;
325;SDS011;150;52.352;14.058;2023-08-12T13:43:34;3.70;;;2.88;;
325;SDS011;150;52.352;14.058;2023-08-12T13:46:01;2.65;;;2.17;;
325;SDS011;150;52.352;14.058;2023-08-12T13:48:28;5.88;;;2.90;;
325;SDS011;150;52.352;14.058;2023-08-12T13:50:55;2.60;;;2.40;;
325;SDS011;150;52.352;14.058;2023-08-12T13:53:22;3.50;;;2.72;;
325;SDS011;150;52.352;14.058;2023-08-12T13:55:50;3.67;;;3.08;;
325;SDS011;150;52.352;14.058;2023-08-12T13:58:17;3.15;;;2.72;;
325;SDS011;150;52.352;14.058;2023-08-12T14:00:43;3.28;;;3.08;;
325;SDS011;150;52.352;14.058;2023-08-12T14:03:10;3.03;;;2.90;;
325;SDS011;150;52.352;14.058;2023-08-12T14:05:36;6.90;;;5.67;;
325;SDS011;150;52.352;14.058;2023-08-12T14:08:03;4.25;;;3.10;;
325;SDS011;150;52.352;14.058;2023-08-12T14:10:30;3.95;;;3.30;;
325;SDS011;150;52.352;14.058;2023-08-12T14:12:58;3.53;;;3.15;;
325;SDS011;150;52.352;14.058;2023-08-12T14:15:25;4.40;;;3.40;;
325;SDS011;150;52.352;14.058;2023-08-12T14:17:52;3.28;;;3.00;;
325;SDS011;150;52.352;14.058;2023-08-12T14:20:18;4.70;;;3.45;;
325;SDS011;150;52.352;14.058;2023-08-12T14:22:45;6.28;;;4.35;;
325;SDS011;150;52.352;14.058;2023-08-12T14:25:11;5.03;;;3.80;;
325;SDS011;150;52.352;14.058;2023-08-12T14:27:38;4.27;;;3.20;;
325;SDS011;150;52.352;14.058;2023-08-12T14:30:07;3.50;;;3.00;;
325;SDS011;150;52.352;14.058;2023-08-12T14:32:35;4.00;;;3.10;;
325;SDS011;150;52.352;14.058;2023-08-12T14:35:01;3.40;;;2.75;;
325;SDS011;150;52.352;14.058;2023-08-12T14:37:30;3.17;;;3.05;;
325;SDS011;150;52.352;14.058;2023-08-12T14:39:57;4.47;;;3.22;;
325;SDS011;150;52.352;14.058;2023-08-12T14:42:23;8.48;;;7.03;;
325;SDS011;150;52.352;14.058;2023-08-12T14:44:50;7.00;;;4.50;;
325;SDS011;150;52.352;14.058;2023-08-12T14:47:18;4.63;;;3.50;;
325;SDS011;150;52.352;14.058;2023-08-12T14:49:45;4.00;;;3.17;;
325;SDS011;150;52.352;14.058;2023-08-12T14:52:15;3.70;;;3.25;;
325;SDS011;150;52.352;14.058;2023-08-12T14:54:43;3.30;;;2.70;;
325;SDS011;150;52.352;14.058;2023-08-12T14:57:10;4.07;;;2.97;;
325;SDS011;150;52.352;14.058;2023-08-12T14:59:37;3.38;;;2.88;;
325;SDS011;150;52.352;14.058;2023-08-12T15:02:04;5.07;;;2.88;;
325;SDS011;150;52.352;14.058;2023-08-12T15:04:35;4.13;;;2.90;;
325;SDS011;150;52.352;14.058;2023-08-12T15:07:02;3.15;;;2.80;;
325;SDS011;150;52.352;14.058;2023-08-12T15:09:29;5.40;;;4.50;;
325;SDS011;150;52.352;14.058;2023-08-12T15:11:56;4.90;;;3.35;;
325;SDS011;150;52.352;14.058;2023-08-12T15:14:23;4.53;;;2.47;;
325;SDS011;150;52.352;14.058;2023-08-12T15:16:50;3.88;;;2.60;;
325;SDS011;150;52.352;14.058;2023-08-12T15:19:17;4.55;;;3.33;;
325;SDS011;150;52.352;14.058;2023-08-12T15:21:45;3.85;;;2.90;;
325;SDS011;150;52.352;14.058;2023-08-12T15:24:13;3.28;;;2.50;;
325;SDS011;150;52.352;14.058;2023-08-12T15:26:41;3.47;;;2.15;;
325;SDS011;150;52.352;14.058;2023-08-12T15:29:08;3.65;;;2.70;;
325;SDS011;150;52.352;14.058;2023-08-12T15:31:35;4.20;;;2.80;;